createdAt,value
2018-08-28T00:00:03.097Z,19.29
2018-08-28T00:00:29.210Z,19.26
2018-08-28T00:00:55.320Z,19.27
2018-08-28T00:01:21.448Z,19.22
2018-08-28T00:01:47.559Z,19.3
2018-08-28T00:02:13.669Z,19.39
2018-08-28T00:02:39.778Z,19.29
2018-08-28T00:03:05.888Z,19.29
2018-08-28T00:03:31.997Z,19.3
2018-08-28T00:03:58.145Z,19.24
2018-08-28T00:04:24.273Z,19.27
2018-08-28T00:04:50.381Z,19.24
2018-08-28T00:05:16.490Z,19.27
2018-08-28T00:05:42.599Z,19.29
2018-08-28T00:06:08.707Z,19.26
2018-08-28T00:06:34.816Z,19.29
2018-08-28T00:07:00.944Z,19.3
2018-08-28T00:07:27.050Z,19.34
2018-08-28T00:07:53.197Z,19.29
2018-08-28T00:08:19.323Z,19.33
2018-08-28T00:08:45.433Z,19.3
2018-08-28T00:09:11.560Z,19.29
2018-08-28T00:09:37.687Z,19.3
2018-08-28T00:10:03.820Z,19.29
2018-08-28T00:10:29.966Z,19.29
2018-08-28T00:10:56.079Z,19.27
2018-08-28T00:11:22.205Z,19.24
2018-08-28T00:11:48.316Z,19.14
2018-08-28T00:12:14.426Z,19.16
2018-08-28T00:12:40.536Z,19.24
2018-08-28T00:13:06.646Z,19.22
2018-08-28T00:13:32.794Z,19.15
2018-08-28T00:13:58.921Z,19.26
2018-08-28T00:14:25.031Z,19.16
2018-08-28T00:14:51.141Z,19.14
2018-08-28T00:15:17.250Z,19.16
2018-08-28T00:15:43.359Z,19.22
2018-08-28T00:16:09.468Z,19.26
2018-08-28T00:16:35.577Z,19.15
2018-08-28T00:17:01.759Z,19.26
2018-08-28T00:17:27.848Z,19.16
2018-08-28T00:17:53.955Z,19.12
2018-08-28T00:18:20.067Z,19.15
2018-08-28T00:18:46.194Z,19.3
2018-08-28T00:19:12.304Z,19.11
2018-08-28T00:19:38.413Z,19.14
2018-08-28T00:20:04.524Z,19.31
2018-08-28T00:20:30.634Z,19.24
2018-08-28T00:20:56.743Z,19.22
2018-08-28T00:21:22.851Z,19.16
2018-08-28T00:21:48.964Z,19.27
2018-08-28T00:22:15.092Z,19.19
2018-08-28T00:22:41.201Z,19.11
2018-08-28T00:23:07.332Z,19.26
2018-08-28T00:23:33.441Z,19.12
2018-08-28T00:23:59.551Z,19.26
2018-08-28T00:24:25.657Z,19.22
2018-08-28T00:24:51.768Z,19.16
2018-08-28T00:25:17.878Z,19.14
2018-08-28T00:25:43.986Z,19.11
2018-08-28T00:26:10.097Z,19.14
2018-08-28T00:26:36.224Z,19.04
2018-08-28T00:27:02.333Z,19.18
2018-08-28T00:27:28.458Z,19.11
2018-08-28T00:27:54.568Z,19.09
2018-08-28T00:28:20.677Z,19.19
2018-08-28T00:28:46.785Z,19.09
2018-08-28T00:29:12.894Z,19.11
2018-08-28T00:29:39.020Z,19.11
2018-08-28T00:30:05.147Z,19.09
2018-08-28T00:30:31.277Z,19.07
2018-08-28T00:30:57.401Z,19.07
2018-08-28T00:31:23.526Z,19.09
2018-08-28T00:31:49.636Z,19.07
2018-08-28T00:32:15.744Z,19.11
2018-08-28T00:32:41.853Z,19.18
2018-08-28T00:33:07.965Z,19.14
2018-08-28T00:33:34.074Z,19.09
2018-08-28T00:34:00.189Z,19.14
2018-08-28T00:34:26.312Z,19.09
2018-08-28T00:34:52.422Z,19.18
2018-08-28T00:35:18.533Z,19.21
2018-08-28T00:35:44.641Z,19.19
2018-08-28T00:36:10.751Z,19.16
2018-08-28T00:36:36.861Z,19.26
2018-08-28T00:37:02.972Z,19.11
2018-08-28T00:37:29.081Z,19.12
2018-08-28T00:37:55.205Z,19.16
2018-08-28T00:38:21.332Z,19.16
2018-08-28T00:38:47.443Z,19.19
2018-08-28T00:39:13.549Z,19.16
2018-08-28T00:39:39.660Z,19.22
2018-08-28T00:40:05.767Z,19.15
2018-08-28T00:40:31.878Z,19.29
2018-08-28T00:40:57.988Z,19.22
2018-08-28T00:41:24.113Z,19.27
2018-08-28T00:41:50.225Z,19.29
2018-08-28T00:42:16.337Z,19.27
2018-08-28T00:42:42.445Z,19.24
2018-08-28T00:43:08.574Z,19.27
2018-08-28T00:43:34.677Z,19.26
2018-08-28T00:44:00.790Z,19.19
2018-08-28T00:44:26.925Z,19.19
2018-08-28T00:44:53.044Z,19.15
2018-08-28T00:45:19.154Z,19.14
2018-08-28T00:45:45.282Z,19.12
2018-08-28T00:46:11.392Z,19.27
2018-08-28T00:46:37.501Z,19.15
2018-08-28T00:47:03.625Z,19.15
2018-08-28T00:47:29.751Z,19.15
2018-08-28T00:47:55.860Z,19.14
2018-08-28T00:48:21.968Z,19.12
2018-08-28T00:48:48.078Z,19.29
2018-08-28T00:49:14.188Z,19.26
2018-08-28T00:49:40.317Z,19.26
2018-08-28T00:50:06.432Z,19.24
2018-08-28T00:50:32.537Z,19.18
2018-08-28T00:50:58.645Z,19.15
2018-08-28T00:51:24.772Z,19.11
2018-08-28T00:51:50.881Z,19.15
2018-08-28T00:52:17.018Z,19.27
2018-08-28T00:52:43.117Z,19.26
2018-08-28T00:53:09.226Z,19.29
2018-08-28T00:53:35.356Z,19.24
2018-08-28T00:54:01.467Z,19.27
2018-08-28T00:54:27.575Z,19.26
2018-08-28T00:54:53.701Z,19.24
2018-08-28T00:55:19.812Z,19.24
2018-08-28T00:55:45.923Z,19.26
2018-08-28T00:56:12.033Z,19.22
2018-08-28T00:56:38.141Z,19.22
2018-08-28T00:57:04.253Z,19.22
2018-08-28T00:57:30.362Z,19.31
2018-08-28T00:57:56.473Z,19.27
2018-08-28T00:58:22.582Z,19.3
2018-08-28T00:58:48.692Z,19.37
2018-08-28T00:59:14.801Z,19.3
2018-08-28T00:59:40.911Z,19.29
2018-08-28T01:00:07.038Z,19.29
2018-08-28T01:00:33.165Z,19.27
2018-08-28T01:00:59.274Z,19.27
2018-08-28T01:01:25.400Z,19.22
2018-08-28T01:01:51.512Z,19.22
2018-08-28T01:02:17.640Z,19.24
2018-08-28T01:02:43.750Z,19.26
2018-08-28T01:03:09.897Z,19.27
2018-08-28T01:03:36.005Z,19.26
2018-08-28T01:04:02.114Z,19.26
2018-08-28T01:04:28.225Z,19.29
2018-08-28T01:04:54.332Z,19.27
2018-08-28T01:05:20.438Z,19.29
2018-08-28T01:05:46.547Z,19.22
2018-08-28T01:06:12.675Z,19.26
2018-08-28T01:06:38.801Z,19.26
2018-08-28T01:07:04.911Z,19.24
2018-08-28T01:07:31.017Z,19.24
2018-08-28T01:07:57.145Z,19.22
2018-08-28T01:08:23.250Z,19.26
2018-08-28T01:08:49.361Z,19.24
2018-08-28T01:09:15.505Z,19.26
2018-08-28T01:09:41.614Z,19.21
2018-08-28T01:10:07.723Z,19.22
2018-08-28T01:10:33.833Z,19.27
2018-08-28T01:10:59.945Z,19.29
2018-08-28T01:11:26.068Z,19.29
2018-08-28T01:11:52.179Z,19.29
2018-08-28T01:12:18.307Z,19.24
2018-08-28T01:12:44.418Z,19.22
2018-08-28T01:13:10.526Z,19.29
2018-08-28T01:13:36.636Z,19.3
2018-08-28T01:14:02.747Z,19.27
2018-08-28T01:14:28.865Z,19.26
2018-08-28T01:14:54.987Z,19.26
2018-08-28T01:15:21.096Z,19.27
2018-08-28T01:15:47.222Z,19.29
2018-08-28T01:16:13.330Z,19.26
2018-08-28T01:16:39.438Z,19.29
2018-08-28T01:17:05.548Z,19.29
2018-08-28T01:17:31.656Z,19.26
2018-08-28T01:17:57.768Z,19.24
2018-08-28T01:18:23.877Z,19.26
2018-08-28T01:18:49.987Z,19.24
2018-08-28T01:19:16.097Z,19.26
2018-08-28T01:19:42.207Z,19.29
2018-08-28T01:20:08.336Z,19.29
2018-08-28T01:20:34.462Z,19.21
2018-08-28T01:21:00.572Z,19.29
2018-08-28T01:21:26.681Z,19.24
2018-08-28T01:21:52.795Z,19.27
2018-08-28T01:22:18.938Z,19.24
2018-08-28T01:22:45.045Z,19.31
2018-08-28T01:23:11.153Z,19.22
2018-08-28T01:23:37.280Z,19.31
2018-08-28T01:24:03.390Z,19.27
2018-08-28T01:24:29.498Z,19.27
2018-08-28T01:24:55.642Z,19.27
2018-08-28T01:25:21.769Z,19.3
2018-08-28T01:25:47.897Z,19.37
2018-08-28T01:26:14.006Z,19.3
2018-08-28T01:26:40.115Z,19.26
2018-08-28T01:27:06.239Z,19.33
2018-08-28T01:27:32.369Z,19.27
2018-08-28T01:27:58.477Z,19.31
2018-08-28T01:28:24.586Z,19.36
2018-08-28T01:28:50.719Z,19.31
2018-08-28T01:29:16.828Z,19.31
2018-08-28T01:29:42.937Z,19.36
2018-08-28T01:30:09.048Z,19.36
2018-08-28T01:30:35.177Z,19.26
2018-08-28T01:31:01.285Z,19.3
2018-08-28T01:31:27.394Z,19.29
2018-08-28T01:31:53.509Z,19.33
2018-08-28T01:32:19.629Z,19.29
2018-08-28T01:32:45.758Z,19.3
2018-08-28T01:33:11.869Z,19.31
2018-08-28T01:33:37.976Z,19.26
2018-08-28T01:34:04.086Z,19.27
2018-08-28T01:34:30.193Z,19.26
2018-08-28T01:34:56.321Z,19.27
2018-08-28T01:35:22.449Z,19.29
2018-08-28T01:35:48.582Z,19.29
2018-08-28T01:36:14.693Z,19.29
2018-08-28T01:36:40.798Z,19.26
2018-08-28T01:37:06.958Z,19.39
2018-08-28T01:37:33.048Z,19.29
2018-08-28T01:37:59.157Z,19.27
2018-08-28T01:38:25.265Z,19.31
2018-08-28T01:38:51.374Z,19.33
2018-08-28T01:39:17.489Z,19.31
2018-08-28T01:39:43.594Z,19.37
2018-08-28T01:40:09.704Z,19.3
2018-08-28T01:40:35.814Z,19.31
2018-08-28T01:41:01.923Z,19.3
2018-08-28T01:41:28.032Z,19.34
2018-08-28T01:41:54.141Z,19.3
2018-08-28T01:42:20.249Z,19.29
2018-08-28T01:42:46.359Z,19.26
2018-08-28T01:43:12.487Z,19.27
2018-08-28T01:43:38.596Z,19.27
2018-08-28T01:44:04.708Z,19.29
2018-08-28T01:44:30.818Z,19.27
2018-08-28T01:44:56.927Z,19.16
2018-08-28T01:45:23.037Z,19.21
2018-08-28T01:45:49.149Z,19.14
2018-08-28T01:46:15.257Z,19.24
2018-08-28T01:46:41.368Z,19.22
2018-08-28T01:47:07.488Z,19.27
2018-08-28T01:47:33.593Z,19.19
2018-08-28T01:47:59.689Z,19.29
2018-08-28T01:48:25.794Z,19.24
2018-08-28T01:48:51.908Z,19.22
2018-08-28T01:49:18.008Z,19.21
2018-08-28T01:49:44.110Z,19.26
2018-08-28T01:50:10.214Z,19.26
2018-08-28T01:50:36.329Z,19.16
2018-08-28T01:51:02.449Z,19.16
2018-08-28T01:51:28.549Z,19.12
2018-08-28T01:51:54.650Z,19.15
2018-08-28T01:52:20.768Z,19.16
2018-08-28T01:52:46.868Z,19.27
2018-08-28T01:53:12.970Z,19.3
2018-08-28T01:53:39.074Z,19.26
2018-08-28T01:54:05.188Z,19.3
2018-08-28T01:54:31.291Z,19.26
2018-08-28T01:54:57.393Z,19.26
2018-08-28T01:55:23.493Z,19.26
2018-08-28T01:55:49.593Z,19.29
2018-08-28T01:56:15.711Z,19.29
2018-08-28T01:56:41.812Z,19.3
2018-08-28T01:57:07.913Z,19.29
2018-08-28T01:57:34.012Z,19.29
2018-08-28T01:58:00.113Z,19.27
2018-08-28T01:58:26.230Z,19.26
2018-08-28T01:58:52.332Z,19.26
2018-08-28T01:59:18.433Z,19.34
2018-08-28T01:59:44.534Z,19.24
2018-08-28T02:00:10.640Z,19.26
2018-08-28T02:00:36.750Z,19.24
2018-08-28T02:01:02.858Z,19.26
2018-08-28T02:01:28.951Z,19.24
2018-08-28T02:01:55.051Z,19.26
2018-08-28T02:02:21.154Z,19.26
2018-08-28T02:02:47.254Z,19.3
2018-08-28T02:03:13.356Z,19.29
2018-08-28T02:03:39.472Z,19.29
2018-08-28T02:04:05.574Z,19.26
2018-08-28T02:04:31.690Z,19.29
2018-08-28T02:04:57.809Z,19.3
2018-08-28T02:05:23.910Z,19.29
2018-08-28T02:05:50.029Z,19.26
2018-08-28T02:06:16.131Z,19.3
2018-08-28T02:06:42.264Z,19.27
2018-08-28T02:07:08.367Z,19.26
2018-08-28T02:07:34.468Z,19.3
2018-08-28T02:08:00.601Z,19.29
2018-08-28T02:08:26.702Z,19.26
2018-08-28T02:08:52.820Z,19.24
2018-08-28T02:09:18.923Z,19.29
2018-08-28T02:09:45.025Z,19.24
2018-08-28T02:10:11.142Z,19.26
2018-08-28T02:10:37.242Z,19.27
2018-08-28T02:11:03.348Z,19.24
2018-08-28T02:11:29.449Z,19.29
2018-08-28T02:11:55.588Z,19.29
2018-08-28T02:12:21.699Z,19.24
2018-08-28T02:12:47.821Z,19.24
2018-08-28T02:13:13.989Z,19.29
2018-08-28T02:13:40.035Z,19.31
2018-08-28T02:14:06.134Z,19.27
2018-08-28T02:14:32.252Z,19.24
2018-08-28T02:14:58.367Z,19.22
2018-08-28T02:15:24.475Z,19.26
2018-08-28T02:15:50.573Z,19.24
2018-08-28T02:16:16.671Z,19.31
2018-08-28T02:16:42.770Z,19.27
2018-08-28T02:17:08.872Z,19.29
2018-08-28T02:17:34.989Z,19.3
2018-08-28T02:18:01.095Z,19.29
2018-08-28T02:18:27.192Z,19.39
2018-08-28T02:18:53.295Z,19.29
2018-08-28T02:19:19.397Z,19.31
2018-08-28T02:19:45.498Z,19.31
2018-08-28T02:20:11.618Z,19.3
2018-08-28T02:20:37.718Z,19.3
2018-08-28T02:21:03.837Z,19.29
2018-08-28T02:21:29.936Z,19.26
2018-08-28T02:21:56.056Z,19.3
2018-08-28T02:22:22.174Z,19.24
2018-08-28T02:22:48.275Z,19.24
2018-08-28T02:23:14.392Z,19.22
2018-08-28T02:23:40.496Z,19.22
2018-08-28T02:24:06.598Z,19.26
2018-08-28T02:24:32.699Z,19.29
2018-08-28T02:24:58.801Z,19.3
2018-08-28T02:25:24.920Z,19.29
2018-08-28T02:25:51.020Z,19.29
2018-08-28T02:26:17.121Z,19.26
2018-08-28T02:26:43.238Z,19.22
2018-08-28T02:27:09.393Z,19.26
2018-08-28T02:27:35.456Z,19.22
2018-08-28T02:28:01.578Z,19.29
2018-08-28T02:28:27.694Z,19.31
2018-08-28T02:28:53.794Z,19.31
2018-08-28T02:29:19.900Z,19.24
2018-08-28T02:29:45.996Z,19.3
2018-08-28T02:30:12.101Z,19.26
2018-08-28T02:30:38.233Z,19.26
2018-08-28T02:31:04.356Z,19.29
2018-08-28T02:31:30.498Z,19.21
2018-08-28T02:31:56.614Z,19.26
2018-08-28T02:32:22.742Z,19.26
2018-08-28T02:32:48.861Z,19.31
2018-08-28T02:33:15.005Z,19.29
2018-08-28T02:33:41.161Z,19.26
2018-08-28T02:34:07.261Z,19.26
2018-08-28T02:34:33.377Z,19.21
2018-08-28T02:34:59.520Z,19.24
2018-08-28T02:35:25.695Z,19.27
2018-08-28T02:35:51.861Z,19.34
2018-08-28T02:36:18.000Z,19.31
2018-08-28T02:36:44.136Z,19.37
2018-08-28T02:37:10.338Z,19.31
2018-08-28T02:37:36.472Z,19.34
2018-08-28T02:38:02.621Z,19.3
2018-08-28T02:38:28.759Z,19.33
2018-08-28T02:38:54.902Z,19.3
2018-08-28T02:39:21.055Z,19.27
2018-08-28T02:39:47.209Z,19.34
2018-08-28T02:40:13.347Z,19.3
2018-08-28T02:40:39.502Z,19.3
2018-08-28T02:41:05.666Z,19.26
2018-08-28T02:41:31.790Z,19.27
2018-08-28T02:41:57.956Z,19.29
2018-08-28T02:42:24.094Z,19.27
2018-08-28T02:42:50.251Z,19.22
2018-08-28T02:43:16.387Z,19.29
2018-08-28T02:43:42.557Z,19.26
2018-08-28T02:44:08.718Z,19.27
2018-08-28T02:44:34.865Z,19.22
2018-08-28T02:45:01.071Z,19.24
2018-08-28T02:45:27.225Z,19.31
2018-08-28T02:45:53.354Z,19.24
2018-08-28T02:46:19.491Z,19.3
2018-08-28T02:46:45.651Z,19.24
2018-08-28T02:47:11.799Z,19.29
2018-08-28T02:47:37.960Z,19.22
2018-08-28T02:48:04.093Z,19.29
2018-08-28T02:48:30.248Z,19.26
2018-08-28T02:48:56.411Z,19.26
2018-08-28T02:49:22.565Z,19.22
2018-08-28T02:49:48.728Z,19.18
2018-08-28T02:50:14.851Z,19.29
2018-08-28T02:50:40.985Z,19.27
2018-08-28T02:51:07.120Z,19.27
2018-08-28T02:51:33.252Z,19.26
2018-08-28T02:51:59.389Z,19.3
2018-08-28T02:52:25.547Z,19.26
2018-08-28T02:52:51.723Z,19.3
2018-08-28T02:53:17.860Z,19.29
2018-08-28T02:53:43.990Z,19.27
2018-08-28T02:54:10.132Z,19.29
2018-08-28T02:54:36.293Z,19.26
2018-08-28T02:55:02.424Z,19.31
2018-08-28T02:55:28.583Z,19.21
2018-08-28T02:55:54.714Z,19.29
2018-08-28T02:56:20.984Z,19.26
2018-08-28T02:56:46.990Z,19.27
2018-08-28T02:57:13.170Z,19.15
2018-08-28T02:57:39.327Z,19.12
2018-08-28T02:58:05.468Z,19.12
2018-08-28T02:58:31.597Z,19.18
2018-08-28T02:58:57.726Z,19.16
2018-08-28T02:59:23.865Z,19.14
2018-08-28T02:59:50.023Z,19.09
2018-08-28T03:00:16.154Z,19.19
2018-08-28T03:00:42.314Z,19.24
2018-08-28T03:01:08.444Z,19.16
2018-08-28T03:01:34.618Z,19.11
2018-08-28T03:02:00.749Z,19.29
2018-08-28T03:02:26.980Z,19.18
2018-08-28T03:02:53.189Z,19.14
2018-08-28T03:03:19.343Z,19.14
2018-08-28T03:03:45.525Z,19.26
2018-08-28T03:04:11.667Z,19.18
2018-08-28T03:04:37.820Z,19.14
2018-08-28T03:05:03.982Z,19.14
2018-08-28T03:05:30.151Z,19.22
2018-08-28T03:05:56.300Z,19.24
2018-08-28T03:06:22.435Z,19.19
2018-08-28T03:06:48.637Z,19.26
2018-08-28T03:07:14.774Z,19.18
2018-08-28T03:07:40.909Z,19.15
2018-08-28T03:08:07.088Z,19.14
2018-08-28T03:08:33.220Z,19.21
2018-08-28T03:08:59.357Z,19.16
2018-08-28T03:09:25.494Z,19.16
2018-08-28T03:09:51.665Z,19.24
2018-08-28T03:10:17.818Z,19.16
2018-08-28T03:10:43.956Z,19.16
2018-08-28T03:11:10.108Z,19.12
2018-08-28T03:11:36.267Z,19.24
2018-08-28T03:12:02.359Z,19.11
2018-08-28T03:12:28.508Z,19.16
2018-08-28T03:12:54.639Z,19.07
2018-08-28T03:13:20.799Z,19.14
2018-08-28T03:13:46.937Z,19.11
2018-08-28T03:14:13.080Z,19.09
2018-08-28T03:14:39.241Z,19.16
2018-08-28T03:15:05.396Z,19.14
2018-08-28T03:15:31.619Z,19.09
2018-08-28T03:15:57.758Z,19.14
2018-08-28T03:16:23.806Z,19.16
2018-08-28T03:16:49.954Z,19.14
2018-08-28T03:17:16.134Z,19.14
2018-08-28T03:17:42.282Z,19.14
2018-08-28T03:18:08.416Z,19.14
2018-08-28T03:18:34.545Z,19.22
2018-08-28T03:19:00.688Z,19.11
2018-08-28T03:19:26.863Z,19.15
2018-08-28T03:19:53.008Z,19.19
2018-08-28T03:20:19.135Z,19.19
2018-08-28T03:20:45.287Z,19.19
2018-08-28T03:21:11.449Z,19.14
2018-08-28T03:21:37.602Z,19.19
2018-08-28T03:22:03.739Z,19.14
2018-08-28T03:22:29.879Z,19.24
2018-08-28T03:22:56.045Z,19.26
2018-08-28T03:23:22.176Z,19.18
2018-08-28T03:23:48.311Z,19.18
2018-08-28T03:24:14.451Z,19.21
2018-08-28T03:24:40.582Z,19.21
2018-08-28T03:25:06.715Z,19.16
2018-08-28T03:25:32.850Z,19.12
2018-08-28T03:25:59.005Z,19.14
2018-08-28T03:26:25.142Z,19.09
2018-08-28T03:26:51.277Z,19.14
2018-08-28T03:27:17.415Z,19.14
2018-08-28T03:27:43.549Z,19.09
2018-08-28T03:28:09.683Z,19.09
2018-08-28T03:28:35.845Z,19.08
2018-08-28T03:29:02.002Z,19.09
2018-08-28T03:29:28.115Z,19.07
2018-08-28T03:29:54.250Z,19.11
2018-08-28T03:30:20.449Z,19.12
2018-08-28T03:30:46.584Z,19.14
2018-08-28T03:31:12.739Z,19.15
2018-08-28T03:31:38.879Z,19.09
2018-08-28T03:32:05.030Z,19.09
2018-08-28T03:32:31.165Z,19.14
2018-08-28T03:32:57.295Z,19.12
2018-08-28T03:33:23.460Z,19.11
2018-08-28T03:33:49.599Z,19.18
2018-08-28T03:34:15.715Z,19.09
2018-08-28T03:34:41.869Z,19.07
2018-08-28T03:35:08.004Z,19.14
2018-08-28T03:35:34.156Z,19.09
2018-08-28T03:36:00.287Z,19.12
2018-08-28T03:36:26.425Z,19.14
2018-08-28T03:36:52.545Z,19.11
2018-08-28T03:37:18.707Z,19
2018-08-28T03:37:44.888Z,19.14
2018-08-28T03:38:11.020Z,19.15
2018-08-28T03:38:37.171Z,19.18
2018-08-28T03:39:03.325Z,19.12
2018-08-28T03:39:29.487Z,19.18
2018-08-28T03:39:55.656Z,19.21
2018-08-28T03:40:21.789Z,19.18
2018-08-28T03:40:47.945Z,19.24
2018-08-28T03:41:14.071Z,19.19
2018-08-28T03:41:40.225Z,19.11
2018-08-28T03:42:06.362Z,19.12
2018-08-28T03:42:32.498Z,19.16
2018-08-28T03:42:58.628Z,19.21
2018-08-28T03:43:24.760Z,19.12
2018-08-28T03:43:50.908Z,19.18
2018-08-28T03:44:17.032Z,19.15
2018-08-28T03:44:43.211Z,19.24
2018-08-28T03:45:09.293Z,19.26
2018-08-28T03:45:35.443Z,19.15
2018-08-28T03:46:01.569Z,19.29
2018-08-28T03:46:27.732Z,19.14
2018-08-28T03:46:53.866Z,19.14
2018-08-28T03:47:20.001Z,19.11
2018-08-28T03:47:46.141Z,19.16
2018-08-28T03:48:12.284Z,19.16
2018-08-28T03:48:38.439Z,19.29
2018-08-28T03:49:04.577Z,19.15
2018-08-28T03:49:30.732Z,19.27
2018-08-28T03:49:56.866Z,19.14
2018-08-28T03:50:23.030Z,19.24
2018-08-28T03:50:49.162Z,19.14
2018-08-28T03:51:15.317Z,19.22
2018-08-28T03:51:41.450Z,19.27
2018-08-28T03:52:07.580Z,19.24
2018-08-28T03:52:33.734Z,19.18
2018-08-28T03:52:59.885Z,19.22
2018-08-28T03:53:26.019Z,19.16
2018-08-28T03:53:52.191Z,19.19
2018-08-28T03:54:18.295Z,19.18
2018-08-28T03:54:44.427Z,19.21
2018-08-28T03:55:10.558Z,19.18
2018-08-28T03:55:36.708Z,19.09
2018-08-28T03:56:02.840Z,19.07
2018-08-28T03:56:28.976Z,19.14
2018-08-28T03:56:55.142Z,19.16
2018-08-28T03:57:21.268Z,19.07
2018-08-28T03:57:47.427Z,19.07
2018-08-28T03:58:13.559Z,19.09
2018-08-28T03:58:39.689Z,19.12
2018-08-28T03:59:05.824Z,19.08
2018-08-28T03:59:31.966Z,19.04
2018-08-28T03:59:58.097Z,19.12
2018-08-28T04:00:24.230Z,19.12
2018-08-28T04:00:50.376Z,19.16
2018-08-28T04:01:16.527Z,19.14
2018-08-28T04:01:42.657Z,19.11
2018-08-28T04:02:08.811Z,19.09
2018-08-28T04:02:34.972Z,19.07
2018-08-28T04:03:01.106Z,19.16
2018-08-28T04:03:27.287Z,19.11
2018-08-28T04:03:53.460Z,19.09
2018-08-28T04:04:19.593Z,18.99
2018-08-28T04:04:45.729Z,19.11
2018-08-28T04:05:11.860Z,19.07
2018-08-28T04:05:38.021Z,19
2018-08-28T04:06:04.155Z,19.08
2018-08-28T04:06:30.293Z,18.98
2018-08-28T04:06:56.449Z,19.11
2018-08-28T04:07:22.582Z,19.07
2018-08-28T04:07:48.714Z,19.02
2018-08-28T04:08:14.851Z,19.02
2018-08-28T04:08:40.979Z,19.02
2018-08-28T04:09:07.112Z,19.07
2018-08-28T04:09:33.247Z,19.09
2018-08-28T04:09:59.383Z,19.08
2018-08-28T04:10:25.514Z,19.08
2018-08-28T04:10:51.648Z,19.14
2018-08-28T04:11:17.806Z,19.07
2018-08-28T04:11:44.010Z,19.08
2018-08-28T04:12:10.156Z,19.12
2018-08-28T04:12:36.326Z,19.11
2018-08-28T04:13:02.499Z,19.09
2018-08-28T04:13:28.631Z,19.11
2018-08-28T04:13:54.761Z,19.12
2018-08-28T04:14:20.903Z,19.09
2018-08-28T04:14:47.060Z,19.04
2018-08-28T04:15:13.216Z,19.07
2018-08-28T04:15:39.351Z,19.09
2018-08-28T04:16:05.485Z,19.14
2018-08-28T04:16:31.622Z,19.11
2018-08-28T04:16:57.760Z,19.08
2018-08-28T04:17:23.933Z,19.11
2018-08-28T04:17:50.092Z,19.14
2018-08-28T04:18:16.224Z,19.08
2018-08-28T04:18:42.363Z,19.11
2018-08-28T04:19:08.511Z,19.07
2018-08-28T04:19:34.646Z,19.08
2018-08-28T04:20:00.790Z,19.09
2018-08-28T04:20:26.921Z,19.02
2018-08-28T04:20:53.054Z,19.08
2018-08-28T04:21:19.194Z,19.07
2018-08-28T04:21:45.325Z,19.04
2018-08-28T04:22:11.457Z,19.09
2018-08-28T04:22:37.646Z,19.04
2018-08-28T04:23:03.755Z,19.07
2018-08-28T04:23:29.889Z,18.95
2018-08-28T04:23:56.023Z,19.07
2018-08-28T04:24:22.154Z,18.95
2018-08-28T04:24:48.287Z,18.95
2018-08-28T04:25:14.439Z,19.02
2018-08-28T04:25:40.608Z,18.98
2018-08-28T04:26:06.734Z,18.99
2018-08-28T04:26:32.873Z,18.93
2018-08-28T04:26:59.042Z,19
2018-08-28T04:27:25.204Z,19
2018-08-28T04:27:51.333Z,19.07
2018-08-28T04:28:17.491Z,19.08
2018-08-28T04:28:43.629Z,19
2018-08-28T04:29:09.785Z,19.08
2018-08-28T04:29:35.917Z,19.02
2018-08-28T04:30:02.041Z,19
2018-08-28T04:30:28.241Z,19.07
2018-08-28T04:30:54.380Z,19.04
2018-08-28T04:31:20.455Z,19.09
2018-08-28T04:31:46.591Z,19.09
2018-08-28T04:32:12.715Z,19.08
2018-08-28T04:32:38.857Z,19.04
2018-08-28T04:33:04.989Z,18.96
2018-08-28T04:33:31.169Z,19.08
2018-08-28T04:33:57.329Z,19.04
2018-08-28T04:34:23.487Z,19
2018-08-28T04:34:49.644Z,18.98
2018-08-28T04:35:15.774Z,19.07
2018-08-28T04:35:41.905Z,19.11
2018-08-28T04:36:08.068Z,18.98
2018-08-28T04:36:34.206Z,18.98
2018-08-28T04:37:00.361Z,19
2018-08-28T04:37:26.492Z,18.96
2018-08-28T04:37:52.629Z,19
2018-08-28T04:38:18.789Z,18.92
2018-08-28T04:38:44.927Z,18.9
2018-08-28T04:39:11.095Z,18.98
2018-08-28T04:39:37.248Z,19.02
2018-08-28T04:40:03.411Z,18.92
2018-08-28T04:40:29.551Z,18.96
2018-08-28T04:40:55.706Z,18.99
2018-08-28T04:41:21.837Z,18.99
2018-08-28T04:41:48.042Z,19.04
2018-08-28T04:42:14.122Z,19.02
2018-08-28T04:42:40.256Z,19.04
2018-08-28T04:43:06.394Z,18.99
2018-08-28T04:43:32.529Z,18.98
2018-08-28T04:43:58.672Z,19
2018-08-28T04:44:24.812Z,19.07
2018-08-28T04:44:50.946Z,19.07
2018-08-28T04:45:17.081Z,19
2018-08-28T04:45:43.221Z,19
2018-08-28T04:46:09.373Z,18.99
2018-08-28T04:46:35.511Z,19
2018-08-28T04:47:01.639Z,19.04
2018-08-28T04:47:27.774Z,19
2018-08-28T04:47:53.934Z,18.98
2018-08-28T04:48:20.065Z,19
2018-08-28T04:48:46.234Z,19.02
2018-08-28T04:49:12.361Z,18.99
2018-08-28T04:49:38.493Z,18.98
2018-08-28T04:50:04.624Z,18.96
2018-08-28T04:50:30.796Z,19.02
2018-08-28T04:50:56.934Z,18.99
2018-08-28T04:51:23.074Z,18.98
2018-08-28T04:51:49.204Z,19.07
2018-08-28T04:52:15.335Z,19.02
2018-08-28T04:52:41.470Z,18.96
2018-08-28T04:53:07.608Z,19
2018-08-28T04:53:33.786Z,19.02
2018-08-28T04:53:59.930Z,18.99
2018-08-28T04:54:26.072Z,18.99
2018-08-28T04:54:52.300Z,18.99
2018-08-28T04:55:18.408Z,19.07
2018-08-28T04:55:44.538Z,18.98
2018-08-28T04:56:10.674Z,18.99
2018-08-28T04:56:36.813Z,19
2018-08-28T04:57:02.965Z,18.99
2018-08-28T04:57:29.145Z,18.99
2018-08-28T04:57:55.280Z,18.98
2018-08-28T04:58:21.439Z,19.02
2018-08-28T04:58:47.561Z,18.98
2018-08-28T04:59:13.698Z,18.93
2018-08-28T04:59:39.835Z,18.95
2018-08-28T05:00:05.989Z,19.02
2018-08-28T05:00:32.146Z,18.98
2018-08-28T05:00:58.287Z,19
2018-08-28T05:01:24.441Z,19.07
2018-08-28T05:01:50.578Z,19.02
2018-08-28T05:02:16.707Z,18.99
2018-08-28T05:02:42.834Z,18.96
2018-08-28T05:03:08.970Z,18.99
2018-08-28T05:03:35.125Z,19.04
2018-08-28T05:04:01.263Z,18.86
2018-08-28T05:04:27.397Z,18.95
2018-08-28T05:04:53.529Z,18.93
2018-08-28T05:05:19.688Z,18.9
2018-08-28T05:05:45.815Z,18.99
2018-08-28T05:06:11.969Z,19.02
2018-08-28T05:06:38.107Z,18.98
2018-08-28T05:07:04.235Z,19.07
2018-08-28T05:07:30.372Z,19
2018-08-28T05:07:56.579Z,19.07
2018-08-28T05:08:22.669Z,18.96
2018-08-28T05:08:48.802Z,18.96
2018-08-28T05:09:14.935Z,19.08
2018-08-28T05:09:41.091Z,19.08
2018-08-28T05:10:07.245Z,18.95
2018-08-28T05:10:33.374Z,19.07
2018-08-28T05:10:59.513Z,19.09
2018-08-28T05:11:25.641Z,18.96
2018-08-28T05:11:51.813Z,19.08
2018-08-28T05:12:17.937Z,19.08
2018-08-28T05:12:44.063Z,19.11
2018-08-28T05:13:10.191Z,19.15
2018-08-28T05:13:36.346Z,19.14
2018-08-28T05:14:02.492Z,19.11
2018-08-28T05:14:28.616Z,19.08
2018-08-28T05:14:54.749Z,19.09
2018-08-28T05:15:20.880Z,19.11
2018-08-28T05:15:47.050Z,19.04
2018-08-28T05:16:13.149Z,19.11
2018-08-28T05:16:39.306Z,19.14
2018-08-28T05:17:05.447Z,19.11
2018-08-28T05:17:31.584Z,19.16
2018-08-28T05:17:57.715Z,19.08
2018-08-28T05:18:23.842Z,19.12
2018-08-28T05:18:49.997Z,19.07
2018-08-28T05:19:16.184Z,19.09
2018-08-28T05:19:42.313Z,19.09
2018-08-28T05:20:08.443Z,19.09
2018-08-28T05:20:34.603Z,19.16
2018-08-28T05:21:00.786Z,19.16
2018-08-28T05:21:26.919Z,19.22
2018-08-28T05:21:53.056Z,19.12
2018-08-28T05:22:19.211Z,19.22
2018-08-28T05:22:45.367Z,19.22
2018-08-28T05:23:11.501Z,19.21
2018-08-28T05:23:37.638Z,19.24
2018-08-28T05:24:03.775Z,19.26
2018-08-28T05:24:29.929Z,19.16
2018-08-28T05:24:56.068Z,19.15
2018-08-28T05:25:22.207Z,19.21
2018-08-28T05:25:48.361Z,19.22
2018-08-28T05:26:14.496Z,19.21
2018-08-28T05:26:40.627Z,19.24
2018-08-28T05:27:06.755Z,19.24
2018-08-28T05:27:32.887Z,19.27
2018-08-28T05:27:59.018Z,19.22
2018-08-28T05:28:25.154Z,19.29
2018-08-28T05:28:51.313Z,19.24
2018-08-28T05:29:17.450Z,19.15
2018-08-28T05:29:43.686Z,19.22
2018-08-28T05:30:09.778Z,19.19
2018-08-28T05:30:36.049Z,19.19
2018-08-28T05:31:02.059Z,19.15
2018-08-28T05:31:28.185Z,19.22
2018-08-28T05:31:54.365Z,19.16
2018-08-28T05:32:20.490Z,19.22
2018-08-28T05:32:46.626Z,19.16
2018-08-28T05:33:12.785Z,19.22
2018-08-28T05:33:38.937Z,19.19
2018-08-28T05:34:05.074Z,19.15
2018-08-28T05:34:31.233Z,19.15
2018-08-28T05:34:57.369Z,19.24
2018-08-28T05:35:23.523Z,19.26
2018-08-28T05:35:49.709Z,19.27
2018-08-28T05:36:15.836Z,19.29
2018-08-28T05:36:41.967Z,19.14
2018-08-28T05:37:08.101Z,19.18
2018-08-28T05:37:34.232Z,19.14